sensor_id;sensor_type;location;lat;lon;timestamp;temperature;humidity
64226;DHT22;50545;56.064;26.178;2024-01-10T00:01:27;1.10;99.90
64226;DHT22;50545;56.064;26.178;2024-01-10T00:03:54;1.10;99.90
64226;DHT22;50545;56.064;26.178;2024-01-10T00:06:22;1.10;99.90
64226;DHT22;50545;56.064;26.178;2024-01-10T00:08:50;1.10;99.90
64226;DHT22;50545;56.064;26.178;2024-01-10T00:11:18;1.10;99.90
64226;DHT22;50545;56.064;26.178;2024-01-10T00:13:46;1.10;99.90
64226;DHT22;50545;56.064;26.178;2024-01-10T00:16:14;1.10;99.90
64226;DHT22;50545;56.064;26.178;2024-01-10T00:18:42;1.10;99.90
64226;DHT22;50545;56.064;26.178;2024-01-10T00:21:11;1.10;99.90
64226;DHT22;50545;56.064;26.178;2024-01-10T00:23:38;1.10;99.90
64226;DHT22;50545;56.064;26.178;2024-01-10T00:26:06;1.10;99.90
64226;DHT22;50545;56.064;26.178;2024-01-10T00:28:33;1.10;99.90
64226;DHT22;50545;56.064;26.178;2024-01-10T00:31:01;1.10;99.90
64226;DHT22;50545;56.064;26.178;2024-01-10T00:33:28;1.10;99.90
64226;DHT22;50545;56.064;26.178;2024-01-10T00:35:56;1.10;99.90
64226;DHT22;50545;56.064;26.178;2024-01-10T00:38:24;1.10;99.90
64226;DHT22;50545;56.064;26.178;2024-01-10T00:40:51;1.10;99.90
64226;DHT22;50545;56.064;26.178;2024-01-10T00:43:19;1.10;99.90
64226;DHT22;50545;56.064;26.178;2024-01-10T00:45:46;1.10;99.90
64226;DHT22;50545;56.064;26.178;2024-01-10T00:48:14;1.10;99.90
64226;DHT22;50545;56.064;26.178;2024-01-10T00:50:42;1.10;99.90
64226;DHT22;50545;56.064;26.178;2024-01-10T00:53:11;1.10;99.90
64226;DHT22;50545;56.064;26.178;2024-01-10T00:55:39;1.10;99.90
64226;DHT22;50545;56.064;26.178;2024-01-10T00:58:06;1.10;99.90
64226;DHT22;50545;56.064;26.178;2024-01-10T01:00:34;1.10;99.90
64226;DHT22;50545;56.064;26.178;2024-01-10T01:03:01;1.10;99.90
64226;DHT22;50545;56.064;26.178;2024-01-10T01:05:29;1.10;99.90
64226;DHT22;50545;56.064;26.178;2024-01-10T01:07:57;1.10;99.90
64226;DHT22;50545;56.064;26.178;2024-01-10T01:10:24;1.10;99.90
64226;DHT22;50545;56.064;26.178;2024-01-10T01:12:52;1.10;99.90
64226;DHT22;50545;56.064;26.178;2024-01-10T01:15:19;1.10;99.90
64226;DHT22;50545;56.064;26.178;2024-01-10T01:17:47;1.10;99.90
64226;DHT22;50545;56.064;26.178;2024-01-10T01:20:15;1.10;99.90
64226;DHT22;50545;56.064;26.178;2024-01-10T01:22:42;1.20;99.90
64226;DHT22;50545;56.064;26.178;2024-01-10T01:25:10;1.10;99.90
64226;DHT22;50545;56.064;26.178;2024-01-10T01:27:38;1.10;99.90
64226;DHT22;50545;56.064;26.178;2024-01-10T01:30:06;1.20;99.90
64226;DHT22;50545;56.064;26.178;2024-01-10T01:32:33;1.20;99.90
64226;DHT22;50545;56.064;26.178;2024-01-10T01:35:01;1.20;99.90
64226;DHT22;50545;56.064;26.178;2024-01-10T01:37:28;1.20;99.90
64226;DHT22;50545;56.064;26.178;2024-01-10T01:39:56;1.20;99.90
64226;DHT22;50545;56.064;26.178;2024-01-10T01:42:24;1.10;99.90
64226;DHT22;50545;56.064;26.178;2024-01-10T01:44:52;1.20;99.90
64226;DHT22;50545;56.064;26.178;2024-01-10T01:47:19;1.20;99.90
64226;DHT22;50545;56.064;26.178;2024-01-10T01:49:47;1.20;99.90
64226;DHT22;50545;56.064;26.178;2024-01-10T01:52:15;1.20;99.90
64226;DHT22;50545;56.064;26.178;2024-01-10T01:54:43;1.20;99.90
64226;DHT22;50545;56.064;26.178;2024-01-10T01:57:10;1.20;99.90
64226;DHT22;50545;56.064;26.178;2024-01-10T01:59:38;1.20;99.90
64226;DHT22;50545;56.064;26.178;2024-01-10T02:02:05;1.20;99.90
64226;DHT22;50545;56.064;26.178;2024-01-10T02:04:33;1.20;99.90
64226;DHT22;50545;56.064;26.178;2024-01-10T02:07:01;1.20;99.90
64226;DHT22;50545;56.064;26.178;2024-01-10T02:09:29;1.20;99.90
64226;DHT22;50545;56.064;26.178;2024-01-10T02:11:56;1.20;99.90
64226;DHT22;50545;56.064;26.178;2024-01-10T02:14:24;1.20;99.90
64226;DHT22;50545;56.064;26.178;2024-01-10T02:16:51;1.20;99.90
64226;DHT22;50545;56.064;26.178;2024-01-10T02:19:20;1.20;99.90
64226;DHT22;50545;56.064;26.178;2024-01-10T02:21:48;1.20;99.90
64226;DHT22;50545;56.064;26.178;2024-01-10T02:24:15;1.20;99.90
64226;DHT22;50545;56.064;26.178;2024-01-10T02:26:43;1.20;99.90
64226;DHT22;50545;56.064;26.178;2024-01-10T02:29:11;1.20;99.90
64226;DHT22;50545;56.064;26.178;2024-01-10T02:31:38;1.20;99.90
64226;DHT22;50545;56.064;26.178;2024-01-10T02:34:06;1.20;99.90
64226;DHT22;50545;56.064;26.178;2024-01-10T02:36:33;1.20;99.90
64226;DHT22;50545;56.064;26.178;2024-01-10T02:39:01;1.30;99.90
64226;DHT22;50545;56.064;26.178;2024-01-10T02:41:28;1.20;99.90
64226;DHT22;50545;56.064;26.178;2024-01-10T02:43:56;1.30;99.90
64226;DHT22;50545;56.064;26.178;2024-01-10T02:46:26;1.30;99.90
64226;DHT22;50545;56.064;26.178;2024-01-10T02:48:56;1.30;99.90
64226;DHT22;50545;56.064;26.178;2024-01-10T02:51:27;1.30;99.90
64226;DHT22;50545;56.064;26.178;2024-01-10T02:53:55;1.30;99.90
64226;DHT22;50545;56.064;26.178;2024-01-10T02:56:23;1.30;99.90
64226;DHT22;50545;56.064;26.178;2024-01-10T02:58:50;1.30;99.90
64226;DHT22;50545;56.064;26.178;2024-01-10T03:01:18;1.30;99.90
64226;DHT22;50545;56.064;26.178;2024-01-10T03:03:45;1.30;99.90
64226;DHT22;50545;56.064;26.178;2024-01-10T03:06:13;1.30;99.90
64226;DHT22;50545;56.064;26.178;2024-01-10T03:08:40;1.30;99.90
64226;DHT22;50545;56.064;26.178;2024-01-10T03:11:08;1.30;99.90
64226;DHT22;50545;56.064;26.178;2024-01-10T03:13:35;1.30;99.90
64226;DHT22;50545;56.064;26.178;2024-01-10T03:16:05;1.30;99.90
64226;DHT22;50545;56.064;26.178;2024-01-10T03:18:34;1.30;99.90
64226;DHT22;50545;56.064;26.178;2024-01-10T03:21:01;1.30;99.90
64226;DHT22;50545;56.064;26.178;2024-01-10T03:23:29;1.30;99.90
64226;DHT22;50545;56.064;26.178;2024-01-10T03:25:56;1.30;99.90
64226;DHT22;50545;56.064;26.178;2024-01-10T03:28:24;1.30;99.90
64226;DHT22;50545;56.064;26.178;2024-01-10T03:30:52;1.30;99.90
64226;DHT22;50545;56.064;26.178;2024-01-10T03:33:19;1.30;99.90
64226;DHT22;50545;56.064;26.178;2024-01-10T03:35:47;1.30;99.90
64226;DHT22;50545;56.064;26.178;2024-01-10T03:38:14;1.30;99.90
64226;DHT22;50545;56.064;26.178;2024-01-10T03:40:43;1.40;99.90
64226;DHT22;50545;56.064;26.178;2024-01-10T03:43:11;1.30;99.90
64226;DHT22;50545;56.064;26.178;2024-01-10T03:45:39;1.30;99.90
64226;DHT22;50545;56.064;26.178;2024-01-10T03:48:07;1.30;99.90
64226;DHT22;50545;56.064;26.178;2024-01-10T03:50:34;1.30;99.90
64226;DHT22;50545;56.064;26.178;2024-01-10T03:53:03;1.30;99.90
64226;DHT22;50545;56.064;26.178;2024-01-10T03:55:30;1.30;99.90
64226;DHT22;50545;56.064;26.178;2024-01-10T03:57:58;1.30;99.90
64226;DHT22;50545;56.064;26.178;2024-01-10T04:00:26;1.40;99.90
64226;DHT22;50545;56.064;26.178;2024-01-10T04:02:53;1.30;99.90
64226;DHT22;50545;56.064;26.178;2024-01-10T04:05:21;1.30;99.90
64226;DHT22;50545;56.064;26.178;2024-01-10T04:07:51;1.40;99.90
64226;DHT22;50545;56.064;26.178;2024-01-10T04:10:19;1.30;99.90
64226;DHT22;50545;56.064;26.178;2024-01-10T04:12:46;1.40;99.90
64226;DHT22;50545;56.064;26.178;2024-01-10T04:15:14;1.30;99.90
64226;DHT22;50545;56.064;26.178;2024-01-10T04:17:42;1.30;99.90
64226;DHT22;50545;56.064;26.178;2024-01-10T04:20:10;1.30;99.90
64226;DHT22;50545;56.064;26.178;2024-01-10T04:22:38;1.30;99.90
64226;DHT22;50545;56.064;26.178;2024-01-10T04:25:06;1.40;99.90
64226;DHT22;50545;56.064;26.178;2024-01-10T04:27:34;1.30;99.90
64226;DHT22;50545;56.064;26.178;2024-01-10T04:30:02;1.30;99.90
64226;DHT22;50545;56.064;26.178;2024-01-10T04:32:29;1.40;99.90
64226;DHT22;50545;56.064;26.178;2024-01-10T04:34:57;1.40;99.90
64226;DHT22;50545;56.064;26.178;2024-01-10T04:37:25;1.40;99.90
64226;DHT22;50545;56.064;26.178;2024-01-10T04:39:53;1.30;99.90
64226;DHT22;50545;56.064;26.178;2024-01-10T04:42:20;1.40;99.90
64226;DHT22;50545;56.064;26.178;2024-01-10T04:44:48;1.40;99.90
64226;DHT22;50545;56.064;26.178;2024-01-10T04:47:16;1.30;99.90
64226;DHT22;50545;56.064;26.178;2024-01-10T04:49:44;1.40;99.90
64226;DHT22;50545;56.064;26.178;2024-01-10T04:52:12;1.30;99.90
64226;DHT22;50545;56.064;26.178;2024-01-10T04:54:39;1.30;99.90
64226;DHT22;50545;56.064;26.178;2024-01-10T04:57:07;1.30;99.90
64226;DHT22;50545;56.064;26.178;2024-01-10T04:59:34;1.30;99.90
64226;DHT22;50545;56.064;26.178;2024-01-10T05:02:02;1.30;99.90
64226;DHT22;50545;56.064;26.178;2024-01-10T05:04:30;1.30;99.90
64226;DHT22;50545;56.064;26.178;2024-01-10T05:06:57;1.40;99.90
64226;DHT22;50545;56.064;26.178;2024-01-10T05:09:25;1.40;99.90
64226;DHT22;50545;56.064;26.178;2024-01-10T05:11:52;1.30;99.90
64226;DHT22;50545;56.064;26.178;2024-01-10T05:14:21;1.30;99.90
64226;DHT22;50545;56.064;26.178;2024-01-10T05:16:50;1.30;99.90
64226;DHT22;50545;56.064;26.178;2024-01-10T05:19:17;1.30;99.90
64226;DHT22;50545;56.064;26.178;2024-01-10T05:21:45;1.30;99.90
64226;DHT22;50545;56.064;26.178;2024-01-10T05:24:13;1.30;99.90
64226;DHT22;50545;56.064;26.178;2024-01-10T05:26:40;1.30;99.90
64226;DHT22;50545;56.064;26.178;2024-01-10T05:29:08;1.30;99.90
64226;DHT22;50545;56.064;26.178;2024-01-10T05:31:35;1.30;99.90
64226;DHT22;50545;56.064;26.178;2024-01-10T05:34:03;1.30;99.90
64226;DHT22;50545;56.064;26.178;2024-01-10T05:36:32;1.30;99.90
64226;DHT22;50545;56.064;26.178;2024-01-10T05:39:01;1.30;99.90
64226;DHT22;50545;56.064;26.178;2024-01-10T05:41:28;1.30;99.90
64226;DHT22;50545;56.064;26.178;2024-01-10T05:43:56;1.30;99.90
64226;DHT22;50545;56.064;26.178;2024-01-10T05:46:24;1.30;99.90
64226;DHT22;50545;56.064;26.178;2024-01-10T05:48:51;1.30;99.90
64226;DHT22;50545;56.064;26.178;2024-01-10T05:51:19;1.30;99.90
64226;DHT22;50545;56.064;26.178;2024-01-10T05:53:47;1.30;99.90
64226;DHT22;50545;56.064;26.178;2024-01-10T05:56:14;1.30;99.90
64226;DHT22;50545;56.064;26.178;2024-01-10T05:58:42;1.30;99.90
64226;DHT22;50545;56.064;26.178;2024-01-10T06:01:09;1.30;99.90
64226;DHT22;50545;56.064;26.178;2024-01-10T06:03:37;1.30;99.90
64226;DHT22;50545;56.064;26.178;2024-01-10T06:06:06;1.30;99.90
64226;DHT22;50545;56.064;26.178;2024-01-10T06:08:34;1.30;99.90
64226;DHT22;50545;56.064;26.178;2024-01-10T06:11:03;1.30;99.90
64226;DHT22;50545;56.064;26.178;2024-01-10T06:13:33;1.30;99.90
64226;DHT22;50545;56.064;26.178;2024-01-10T06:16:18;1.30;99.90
64226;DHT22;50545;56.064;26.178;2024-01-10T06:18:45;1.30;99.90
64226;DHT22;50545;56.064;26.178;2024-01-10T06:21:13;1.30;99.90
64226;DHT22;50545;56.064;26.178;2024-01-10T06:23:41;1.30;99.90
64226;DHT22;50545;56.064;26.178;2024-01-10T06:26:09;1.20;99.90
64226;DHT22;50545;56.064;26.178;2024-01-10T06:28:38;1.30;99.90
64226;DHT22;50545;56.064;26.178;2024-01-10T06:31:06;1.20;99.90
64226;DHT22;50545;56.064;26.178;2024-01-10T06:33:37;1.20;99.90
64226;DHT22;50545;56.064;26.178;2024-01-10T06:36:05;1.20;99.90
64226;DHT22;50545;56.064;26.178;2024-01-10T06:38:33;1.20;99.90
64226;DHT22;50545;56.064;26.178;2024-01-10T06:41:00;1.20;99.90
64226;DHT22;50545;56.064;26.178;2024-01-10T06:43:28;1.20;99.90
64226;DHT22;50545;56.064;26.178;2024-01-10T06:45:55;1.20;99.90
64226;DHT22;50545;56.064;26.178;2024-01-10T06:48:23;1.20;99.90
64226;DHT22;50545;56.064;26.178;2024-01-10T06:50:50;1.20;99.90
64226;DHT22;50545;56.064;26.178;2024-01-10T06:53:18;1.20;99.90
64226;DHT22;50545;56.064;26.178;2024-01-10T06:55:46;1.20;99.90
64226;DHT22;50545;56.064;26.178;2024-01-10T06:58:13;1.20;99.90
64226;DHT22;50545;56.064;26.178;2024-01-10T07:00:40;1.20;99.90
64226;DHT22;50545;56.064;26.178;2024-01-10T07:03:09;1.20;99.90
64226;DHT22;50545;56.064;26.178;2024-01-10T07:05:36;1.20;99.90
64226;DHT22;50545;56.064;26.178;2024-01-10T07:08:04;1.20;99.90
64226;DHT22;50545;56.064;26.178;2024-01-10T07:10:32;1.20;99.90
64226;DHT22;50545;56.064;26.178;2024-01-10T07:12:59;1.20;99.90
64226;DHT22;50545;56.064;26.178;2024-01-10T07:15:27;1.20;99.90
64226;DHT22;50545;56.064;26.178;2024-01-10T07:17:55;1.20;99.90
64226;DHT22;50545;56.064;26.178;2024-01-10T07:20:22;1.20;99.90
64226;DHT22;50545;56.064;26.178;2024-01-10T07:22:51;1.20;99.90
64226;DHT22;50545;56.064;26.178;2024-01-10T07:25:19;1.30;99.90
64226;DHT22;50545;56.064;26.178;2024-01-10T07:27:49;1.30;99.90
64226;DHT22;50545;56.064;26.178;2024-01-10T07:30:17;1.30;99.90
64226;DHT22;50545;56.064;26.178;2024-01-10T07:32:45;1.30;99.90
64226;DHT22;50545;56.064;26.178;2024-01-10T07:35:13;1.30;99.90
64226;DHT22;50545;56.064;26.178;2024-01-10T07:37:42;1.30;99.90
64226;DHT22;50545;56.064;26.178;2024-01-10T07:40:10;1.30;99.90
64226;DHT22;50545;56.064;26.178;2024-01-10T07:42:38;1.30;99.90
64226;DHT22;50545;56.064;26.178;2024-01-10T07:45:07;1.30;99.90
64226;DHT22;50545;56.064;26.178;2024-01-10T07:47:36;1.30;99.90
64226;DHT22;50545;56.064;26.178;2024-01-10T07:50:07;1.30;99.90
64226;DHT22;50545;56.064;26.178;2024-01-10T07:52:36;1.40;99.90
64226;DHT22;50545;56.064;26.178;2024-01-10T07:55:04;1.30;99.90
64226;DHT22;50545;56.064;26.178;2024-01-10T07:57:33;1.30;99.90
64226;DHT22;50545;56.064;26.178;2024-01-10T08:00:10;1.40;99.90
64226;DHT22;50545;56.064;26.178;2024-01-10T08:02:38;1.40;99.90
64226;DHT22;50545;56.064;26.178;2024-01-10T08:05:07;1.30;99.90
64226;DHT22;50545;56.064;26.178;2024-01-10T08:07:38;1.40;99.90
64226;DHT22;50545;56.064;26.178;2024-01-10T08:10:07;1.40;99.90
64226;DHT22;50545;56.064;26.178;2024-01-10T08:12:39;1.40;99.90
64226;DHT22;50545;56.064;26.178;2024-01-10T08:15:07;1.40;99.90
64226;DHT22;50545;56.064;26.178;2024-01-10T08:17:34;1.40;99.90
64226;DHT22;50545;56.064;26.178;2024-01-10T08:20:08;1.40;99.90
64226;DHT22;50545;56.064;26.178;2024-01-10T08:22:38;1.40;99.90
64226;DHT22;50545;56.064;26.178;2024-01-10T08:25:06;1.40;99.90
64226;DHT22;50545;56.064;26.178;2024-01-10T08:27:34;1.50;99.90
64226;DHT22;50545;56.064;26.178;2024-01-10T08:30:02;1.50;99.90
64226;DHT22;50545;56.064;26.178;2024-01-10T08:32:32;1.50;99.90
64226;DHT22;50545;56.064;26.178;2024-01-10T08:35:06;1.50;99.90
64226;DHT22;50545;56.064;26.178;2024-01-10T08:37:36;1.50;99.90
64226;DHT22;50545;56.064;26.178;2024-01-10T08:40:06;1.50;99.90
64226;DHT22;50545;56.064;26.178;2024-01-10T08:42:43;1.50;99.90
64226;DHT22;50545;56.064;26.178;2024-01-10T08:45:11;1.50;99.90
64226;DHT22;50545;56.064;26.178;2024-01-10T08:47:38;1.50;99.90
64226;DHT22;50545;56.064;26.178;2024-01-10T08:50:06;1.50;99.90
64226;DHT22;50545;56.064;26.178;2024-01-10T08:52:36;1.60;99.90
64226;DHT22;50545;56.064;26.178;2024-01-10T08:55:07;1.60;99.90
64226;DHT22;50545;56.064;26.178;2024-01-10T08:57:40;1.60;99.90
64226;DHT22;50545;56.064;26.178;2024-01-10T09:00:07;1.60;99.90
64226;DHT22;50545;56.064;26.178;2024-01-10T09:02:40;1.50;99.90
64226;DHT22;50545;56.064;26.178;2024-01-10T09:05:08;1.60;99.90
64226;DHT22;50545;56.064;26.178;2024-01-10T09:07:38;1.50;99.90
64226;DHT22;50545;56.064;26.178;2024-01-10T09:10:06;1.50;99.90
64226;DHT22;50545;56.064;26.178;2024-01-10T09:12:35;1.60;99.90
64226;DHT22;50545;56.064;26.178;2024-01-10T09:15:03;1.60;99.90
64226;DHT22;50545;56.064;26.178;2024-01-10T09:17:30;1.60;99.90
64226;DHT22;50545;56.064;26.178;2024-01-10T09:19:58;1.60;99.90
64226;DHT22;50545;56.064;26.178;2024-01-10T09:22:26;1.60;99.90
64226;DHT22;50545;56.064;26.178;2024-01-10T09:24:53;1.60;99.90
64226;DHT22;50545;56.064;26.178;2024-01-10T09:27:21;1.60;99.90
64226;DHT22;50545;56.064;26.178;2024-01-10T09:29:49;1.60;99.90
64226;DHT22;50545;56.064;26.178;2024-01-10T09:32:17;1.60;99.90
64226;DHT22;50545;56.064;26.178;2024-01-10T09:34:46;1.60;99.90
64226;DHT22;50545;56.064;26.178;2024-01-10T09:37:13;1.60;99.90
64226;DHT22;50545;56.064;26.178;2024-01-10T09:39:41;1.60;99.90
64226;DHT22;50545;56.064;26.178;2024-01-10T09:42:08;1.60;99.90
64226;DHT22;50545;56.064;26.178;2024-01-10T09:44:36;1.60;99.90
64226;DHT22;50545;56.064;26.178;2024-01-10T09:47:03;1.60;99.90
64226;DHT22;50545;56.064;26.178;2024-01-10T09:49:32;1.60;99.90
64226;DHT22;50545;56.064;26.178;2024-01-10T09:52:04;1.60;99.90
64226;DHT22;50545;56.064;26.178;2024-01-10T09:54:32;1.70;99.90
64226;DHT22;50545;56.064;26.178;2024-01-10T09:57:01;1.70;99.90
64226;DHT22;50545;56.064;26.178;2024-01-10T09:59:28;1.70;99.90
64226;DHT22;50545;56.064;26.178;2024-01-10T10:01:57;1.70;99.90
64226;DHT22;50545;56.064;26.178;2024-01-10T10:04:28;1.80;99.90
64226;DHT22;50545;56.064;26.178;2024-01-10T10:07:00;1.80;99.90
64226;DHT22;50545;56.064;26.178;2024-01-10T10:09:30;1.90;99.90
64226;DHT22;50545;56.064;26.178;2024-01-10T10:11:58;1.80;99.90
64226;DHT22;50545;56.064;26.178;2024-01-10T10:14:28;1.80;99.90
64226;DHT22;50545;56.064;26.178;2024-01-10T10:17:13;1.90;99.90
64226;DHT22;50545;56.064;26.178;2024-01-10T10:19:43;1.90;99.90
64226;DHT22;50545;56.064;26.178;2024-01-10T10:22:11;1.90;99.90
64226;DHT22;50545;56.064;26.178;2024-01-10T10:24:40;1.90;99.90
64226;DHT22;50545;56.064;26.178;2024-01-10T10:27:12;2.00;99.90
64226;DHT22;50545;56.064;26.178;2024-01-10T10:29:42;2.00;99.90
64226;DHT22;50545;56.064;26.178;2024-01-10T10:32:14;2.00;99.90
64226;DHT22;50545;56.064;26.178;2024-01-10T10:34:42;2.10;99.90
64226;DHT22;50545;56.064;26.178;2024-01-10T10:37:11;2.10;99.90
64226;DHT22;50545;56.064;26.178;2024-01-10T10:39:39;2.10;99.90
64226;DHT22;50545;56.064;26.178;2024-01-10T10:42:06;2.00;99.90
64226;DHT22;50545;56.064;26.178;2024-01-10T10:44:36;2.10;99.90
64226;DHT22;50545;56.064;26.178;2024-01-10T10:47:09;2.10;99.90
64226;DHT22;50545;56.064;26.178;2024-01-10T10:49:50;2.10;99.90
64226;DHT22;50545;56.064;26.178;2024-01-10T10:52:20;2.10;99.90
64226;DHT22;50545;56.064;26.178;2024-01-10T10:54:49;2.10;99.90
64226;DHT22;50545;56.064;26.178;2024-01-10T10:57:18;2.10;99.90
64226;DHT22;50545;56.064;26.178;2024-01-10T10:59:49;2.10;99.90
64226;DHT22;50545;56.064;26.178;2024-01-10T11:02:21;2.10;99.90
64226;DHT22;50545;56.064;26.178;2024-01-10T11:04:56;2.00;99.90
64226;DHT22;50545;56.064;26.178;2024-01-10T11:07:24;2.00;99.90
64226;DHT22;50545;56.064;26.178;2024-01-10T11:09:52;1.90;99.90
64226;DHT22;50545;56.064;26.178;2024-01-10T11:23:42;1.90;99.90
64226;DHT22;50545;56.064;26.178;2024-01-10T11:26:13;1.90;99.90
64226;DHT22;50545;56.064;26.178;2024-01-10T11:28:41;1.80;99.90
64226;DHT22;50545;56.064;26.178;2024-01-10T11:31:09;1.80;99.90
64226;DHT22;50545;56.064;26.178;2024-01-10T11:33:39;1.90;99.90
64226;DHT22;50545;56.064;26.178;2024-01-10T11:36:17;1.80;99.90
64226;DHT22;50545;56.064;26.178;2024-01-10T11:46:38;1.80;99.90
64226;DHT22;50545;56.064;26.178;2024-01-10T11:49:12;1.80;99.90
64226;DHT22;50545;56.064;26.178;2024-01-10T11:51:43;1.90;99.90
64226;DHT22;50545;56.064;26.178;2024-01-10T11:54:36;1.80;99.90
64226;DHT22;50545;56.064;26.178;2024-01-10T11:57:11;1.80;99.90
64226;DHT22;50545;56.064;26.178;2024-01-10T11:59:42;1.80;99.90
64226;DHT22;50545;56.064;26.178;2024-01-10T12:02:11;1.80;99.90
64226;DHT22;50545;56.064;26.178;2024-01-10T12:04:39;1.80;99.90
64226;DHT22;50545;56.064;26.178;2024-01-10T12:07:16;1.80;99.90
64226;DHT22;50545;56.064;26.178;2024-01-10T12:09:45;1.80;99.90
64226;DHT22;50545;56.064;26.178;2024-01-10T12:12:14;1.80;99.90
64226;DHT22;50545;56.064;26.178;2024-01-10T12:14:42;1.80;99.90
64226;DHT22;50545;56.064;26.178;2024-01-10T12:17:16;1.80;99.90
64226;DHT22;50545;56.064;26.178;2024-01-10T12:19:44;1.80;99.90
64226;DHT22;50545;56.064;26.178;2024-01-10T12:22:15;1.80;99.90
64226;DHT22;50545;56.064;26.178;2024-01-10T12:24:52;1.80;99.90
64226;DHT22;50545;56.064;26.178;2024-01-10T12:27:20;1.90;99.90
64226;DHT22;50545;56.064;26.178;2024-01-10T12:29:53;1.90;99.90
64226;DHT22;50545;56.064;26.178;2024-01-10T12:32:21;1.80;99.90
64226;DHT22;50545;56.064;26.178;2024-01-10T12:35:03;1.80;99.90
64226;DHT22;50545;56.064;26.178;2024-01-10T12:37:32;1.90;99.90
64226;DHT22;50545;56.064;26.178;2024-01-10T12:39:59;1.80;99.90
64226;DHT22;50545;56.064;26.178;2024-01-10T12:42:29;1.80;99.90
64226;DHT22;50545;56.064;26.178;2024-01-10T12:44:56;1.80;99.90
64226;DHT22;50545;56.064;26.178;2024-01-10T12:47:25;1.80;99.90
64226;DHT22;50545;56.064;26.178;2024-01-10T12:49:53;1.80;99.90
64226;DHT22;50545;56.064;26.178;2024-01-10T12:52:21;1.80;99.90
64226;DHT22;50545;56.064;26.178;2024-01-10T12:54:51;1.80;99.90
64226;DHT22;50545;56.064;26.178;2024-01-10T12:57:19;1.80;99.90
64226;DHT22;50545;56.064;26.178;2024-01-10T12:59:46;1.80;99.90
64226;DHT22;50545;56.064;26.178;2024-01-10T13:02:14;1.80;99.90
64226;DHT22;50545;56.064;26.178;2024-01-10T13:04:41;1.70;99.90
64226;DHT22;50545;56.064;26.178;2024-01-10T13:07:09;1.70;99.90
64226;DHT22;50545;56.064;26.178;2024-01-10T13:09:36;1.80;99.90
64226;DHT22;50545;56.064;26.178;2024-01-10T13:12:04;1.70;99.90
64226;DHT22;50545;56.064;26.178;2024-01-10T13:14:32;1.70;99.90
64226;DHT22;50545;56.064;26.178;2024-01-10T13:17:00;1.70;99.90
64226;DHT22;50545;56.064;26.178;2024-01-10T13:19:27;1.70;99.90
64226;DHT22;50545;56.064;26.178;2024-01-10T13:21:55;1.70;99.90
64226;DHT22;50545;56.064;26.178;2024-01-10T13:24:22;1.70;99.90
64226;DHT22;50545;56.064;26.178;2024-01-10T13:26:50;1.70;99.90
64226;DHT22;50545;56.064;26.178;2024-01-10T13:29:17;1.60;99.90
64226;DHT22;50545;56.064;26.178;2024-01-10T13:31:45;1.70;99.90
64226;DHT22;50545;56.064;26.178;2024-01-10T13:34:12;1.60;99.90
64226;DHT22;50545;56.064;26.178;2024-01-10T13:36:40;1.70;99.90
64226;DHT22;50545;56.064;26.178;2024-01-10T13:39:08;1.70;99.90
64226;DHT22;50545;56.064;26.178;2024-01-10T13:41:36;1.60;99.90
64226;DHT22;50545;56.064;26.178;2024-01-10T13:44:04;1.70;99.90
64226;DHT22;50545;56.064;26.178;2024-01-10T13:46:32;1.60;99.90
64226;DHT22;50545;56.064;26.178;2024-01-10T13:49:01;1.70;99.90
64226;DHT22;50545;56.064;26.178;2024-01-10T13:51:29;1.60;99.90
64226;DHT22;50545;56.064;26.178;2024-01-10T13:53:56;1.70;99.90
64226;DHT22;50545;56.064;26.178;2024-01-10T13:56:24;1.60;99.90
64226;DHT22;50545;56.064;26.178;2024-01-10T13:58:52;1.60;99.90
64226;DHT22;50545;56.064;26.178;2024-01-10T14:01:19;1.60;99.90
64226;DHT22;50545;56.064;26.178;2024-01-10T14:03:47;1.60;99.90
64226;DHT22;50545;56.064;26.178;2024-01-10T14:06:15;1.60;99.90
64226;DHT22;50545;56.064;26.178;2024-01-10T14:08:42;1.60;99.90
64226;DHT22;50545;56.064;26.178;2024-01-10T14:11:13;1.60;99.90
64226;DHT22;50545;56.064;26.178;2024-01-10T14:13:41;1.60;99.90
64226;DHT22;50545;56.064;26.178;2024-01-10T14:16:08;1.60;99.90
64226;DHT22;50545;56.064;26.178;2024-01-10T14:18:38;1.60;99.90
64226;DHT22;50545;56.064;26.178;2024-01-10T14:21:05;1.60;99.90
64226;DHT22;50545;56.064;26.178;2024-01-10T14:23:33;1.50;99.90
64226;DHT22;50545;56.064;26.178;2024-01-10T14:26:00;1.60;99.90
64226;DHT22;50545;56.064;26.178;2024-01-10T14:28:28;1.50;99.90
64226;DHT22;50545;56.064;26.178;2024-01-10T14:30:56;1.50;99.90
64226;DHT22;50545;56.064;26.178;2024-01-10T14:33:40;1.50;99.90
64226;DHT22;50545;56.064;26.178;2024-01-10T14:36:08;1.50;99.90
64226;DHT22;50545;56.064;26.178;2024-01-10T14:38:35;1.50;99.90
64226;DHT22;50545;56.064;26.178;2024-01-10T14:41:03;1.60;99.90
64226;DHT22;50545;56.064;26.178;2024-01-10T14:43:30;1.50;99.90
64226;DHT22;50545;56.064;26.178;2024-01-10T14:45:58;1.50;99.90
64226;DHT22;50545;56.064;26.178;2024-01-10T14:48:25;1.60;99.90
64226;DHT22;50545;56.064;26.178;2024-01-10T14:50:53;1.50;99.90
64226;DHT22;50545;56.064;26.178;2024-01-10T14:53:20;1.60;99.90
64226;DHT22;50545;56.064;26.178;2024-01-10T14:55:48;1.50;99.90
64226;DHT22;50545;56.064;26.178;2024-01-10T14:58:15;1.60;99.90
64226;DHT22;50545;56.064;26.178;2024-01-10T15:00:45;1.60;99.90
64226;DHT22;50545;56.064;26.178;2024-01-10T15:03:12;1.60;99.90
64226;DHT22;50545;56.064;26.178;2024-01-10T15:05:55;1.60;99.90
64226;DHT22;50545;56.064;26.178;2024-01-10T15:08:22;1.50;99.90
64226;DHT22;50545;56.064;26.178;2024-01-10T15:10:50;1.60;99.90
64226;DHT22;50545;56.064;26.178;2024-01-10T15:13:17;1.60;99.90
64226;DHT22;50545;56.064;26.178;2024-01-10T15:15:46;1.60;99.90
64226;DHT22;50545;56.064;26.178;2024-01-10T15:18:14;1.60;99.90
64226;DHT22;50545;56.064;26.178;2024-01-10T15:20:42;1.60;99.90
64226;DHT22;50545;56.064;26.178;2024-01-10T15:23:10;1.60;99.90
64226;DHT22;50545;56.064;26.178;2024-01-10T15:25:37;1.60;99.90
64226;DHT22;50545;56.064;26.178;2024-01-10T15:28:05;1.60;99.90
64226;DHT22;50545;56.064;26.178;2024-01-10T15:30:33;1.60;99.90
64226;DHT22;50545;56.064;26.178;2024-01-10T15:33:13;1.60;99.90
64226;DHT22;50545;56.064;26.178;2024-01-10T15:35:41;1.60;99.90
64226;DHT22;50545;56.064;26.178;2024-01-10T15:38:09;1.60;99.90
64226;DHT22;50545;56.064;26.178;2024-01-10T15:40:36;1.60;99.90
64226;DHT22;50545;56.064;26.178;2024-01-10T15:43:04;1.60;99.90
64226;DHT22;50545;56.064;26.178;2024-01-10T15:45:32;1.60;99.90
64226;DHT22;50545;56.064;26.178;2024-01-10T15:48:01;1.60;99.90
64226;DHT22;50545;56.064;26.178;2024-01-10T15:50:28;1.60;99.90
64226;DHT22;50545;56.064;26.178;2024-01-10T15:52:56;1.60;99.90
64226;DHT22;50545;56.064;26.178;2024-01-10T15:55:23;1.60;99.90
64226;DHT22;50545;56.064;26.178;2024-01-10T15:57:51;1.50;99.90